Time;durP1;ratioP1;P1;durP2;ratioP2;P2;SDS_P1;SDS_P2;PMS_P1;PMS_P2;Temp;Humidity;BMP_temperature;BMP_pressure;BME280_temperature;BME280_humidity;BME280_pressure;Samples;Min_cycle;Max_cycle;Signal;HPM_P1;HPM_P2
2023/06/09 00:01:18;;;;;;;19.00;8.57;;;11.60;99.90;;;;;;5069228;28;20085;-39
2023/06/09 00:03:46;;;;;;;21.00;9.63;;;11.60;99.90;;;;;;5073843;28;20567;-39
2023/06/09 00:06:13;;;;;;;20.27;8.93;;;11.60;99.90;;;;;;5072365;28;20087;-39
2023/06/09 00:08:39;;;;;;;21.08;9.35;;;11.60;99.90;;;;;;5074006;28;20048;-39
2023/06/09 00:11:05;;;;;;;22.98;9.02;;;11.60;99.90;;;;;;5073073;28;20054;-39
2023/06/09 00:13:31;;;;;;;22.50;9.10;;;11.50;99.90;;;;;;5072831;28;20387;-39
2023/06/09 00:15:56;;;;;;;24.90;8.43;;;11.60;99.90;;;;;;5072724;28;20044;-39
2023/06/09 00:18:24;;;;;;;21.20;8.68;;;11.60;99.90;;;;;;5073242;28;20093;-39
2023/06/09 00:20:50;;;;;;;20.25;8.45;;;11.60;99.90;;;;;;5071887;28;20204;-38
2023/06/09 00:23:16;;;;;;;17.95;9.00;;;11.60;99.90;;;;;;5073125;28;20048;-39
2023/06/09 00:25:41;;;;;;;17.70;9.02;;;11.50;99.90;;;;;;5071555;28;20625;-39
2023/06/09 00:28:09;;;;;;;16.92;9.52;;;11.60;99.90;;;;;;5072978;28;20058;-39
2023/06/09 00:30:35;;;;;;;22.50;9.63;;;11.60;99.90;;;;;;5072600;28;20503;-39
2023/06/09 00:33:01;;;;;;;18.65;9.43;;;11.60;99.90;;;;;;5072868;28;20036;-39
2023/06/09 00:35:26;;;;;;;23.85;9.15;;;11.50;99.90;;;;;;5073190;28;20058;-39
2023/06/09 00:37:52;;;;;;;22.45;10.35;;;11.50;99.90;;;;;;5061048;28;20335;-38
2023/06/09 00:40:20;;;;;;;22.25;10.90;;;11.50;99.90;;;;;;5062573;28;20645;-40
2023/06/09 00:42:46;;;;;;;24.38;11.48;;;11.50;99.90;;;;;;5065256;28;20090;-39
2023/06/09 00:45:13;;;;;;;23.23;12.18;;;11.50;99.90;;;;;;5069462;28;20126;-38
2023/06/09 00:47:39;;;;;;;28.80;11.85;;;11.50;99.90;;;;;;5073943;28;20078;-38
2023/06/09 00:50:06;;;;;;;28.35;12.57;;;11.50;99.90;;;;;;5066566;28;20048;-38
2023/06/09 00:52:32;;;;;;;21.67;12.10;;;11.50;99.90;;;;;;5073769;28;20139;-38
2023/06/09 00:54:58;;;;;;;28.33;12.57;;;11.50;99.90;;;;;;5071423;28;20379;-39
2023/06/09 00:57:24;;;;;;;24.67;12.80;;;11.50;99.90;;;;;;5071666;28;20147;-39
2023/06/09 00:59:50;;;;;;;26.85;12.45;;;11.50;99.90;;;;;;5072362;28;20071;-39
2023/06/09 01:02:16;;;;;;;19.33;11.98;;;11.60;99.90;;;;;;5072117;28;20723;-39
2023/06/09 01:04:49;;;;;;;28.13;14.18;;;11.60;99.90;;;;;;5072943;28;20052;-39
2023/06/09 01:07:46;;;;;;;23.77;12.70;;;11.60;99.90;;;;;;5073843;28;20055;-39
2023/06/09 01:10:43;;;;;;;26.10;12.50;;;11.60;99.90;;;;;;5066930;28;20161;-39
2023/06/09 01:13:28;;;;;;;28.02;12.30;;;11.60;99.90;;;;;;5076062;28;20056;-39
2023/06/09 01:15:59;;;;;;;26.23;11.38;;;11.60;99.90;;;;;;5076454;28;20083;-39
2023/06/09 01:18:27;;;;;;;29.88;13.90;;;11.60;99.90;;;;;;5074220;28;20459;-38
2023/06/09 01:21:20;;;;;;;31.58;11.80;;;11.60;99.90;;;;;;5076363;28;20080;-39
2023/06/09 01:23:53;;;;;;;21.55;12.88;;;11.60;99.90;;;;;;5069656;28;20499;-38
2023/06/09 01:26:20;;;;;;;;;;;11.60;99.90;;;;;;5077136;28;20068;-39
2023/06/09 01:28:47;;;;;;;26.05;11.50;;;11.60;99.90;;;;;;5077447;28;19924;-39
2023/06/09 01:31:15;;;;;;;26.30;11.82;;;11.60;99.90;;;;;;5077131;28;20224;-39
2023/06/09 01:33:42;;;;;;;20.88;11.20;;;11.60;99.90;;;;;;5076665;28;20552;-39
2023/06/09 01:36:09;;;;;;;24.73;11.68;;;11.60;99.90;;;;;;5076240;28;20044;-39
2023/06/09 01:38:35;;;;;;;24.63;10.55;;;11.50;99.90;;;;;;5058746;28;20106;-39
2023/06/09 01:41:01;;;;;;;24.17;11.52;;;11.50;99.90;;;;;;5070463;28;20656;-39
2023/06/09 01:43:26;;;;;;;25.20;10.63;;;11.50;99.90;;;;;;5067205;28;20051;-39
2023/06/09 01:45:52;;;;;;;28.75;12.80;;;11.50;99.90;;;;;;5075398;28;20414;-40
2023/06/09 01:49:12;;;;;;;24.67;11.80;;;11.50;99.90;;;;;;5076317;28;20547;-39
2023/06/09 01:51:49;;;;;;;24.30;11.35;;;11.50;99.90;;;;;;5017055;28;20046;-39
2023/06/09 01:54:22;;;;;;;22.58;10.98;;;11.40;99.90;;;;;;5013296;28;20062;-38
2023/06/09 01:56:58;;;;;;;22.17;11.10;;;11.50;99.90;;;;;;5013598;28;20060;-38
2023/06/09 01:59:27;;;;;;;25.70;10.95;;;11.50;99.90;;;;;;5003326;28;20058;-37
2023/06/09 02:01:55;;;;;;;22.17;11.15;;;11.50;99.90;;;;;;4993800;28;20089;-38
2023/06/09 02:04:24;;;;;;;23.58;11.48;;;11.40;99.90;;;;;;5011890;28;20057;-37
2023/06/09 02:06:51;;;;;;;25.40;10.80;;;11.40;99.90;;;;;;5010908;28;20072;-39
2023/06/09 02:09:17;;;;;;;24.95;11.18;;;11.40;99.90;;;;;;4996501;28;20053;-38
2023/06/09 02:11:50;;;;;;;23.27;11.10;;;11.40;99.90;;;;;;4992000;28;20079;-38
2023/06/09 02:14:15;;;;;;;23.50;11.57;;;11.40;99.90;;;;;;5011820;28;20456;-39
2023/06/09 02:16:41;;;;;;;26.38;11.27;;;11.40;99.90;;;;;;4996141;28;20620;-38
2023/06/09 02:19:07;;;;;;;23.50;11.35;;;11.40;99.90;;;;;;5011909;28;20457;-38
2023/06/09 02:21:33;;;;;;;21.85;11.77;;;11.40;99.90;;;;;;5007912;28;20206;-39
2023/06/09 02:23:58;;;;;;;26.90;11.65;;;11.40;99.90;;;;;;5007423;28;20204;-39
2023/06/09 02:26:24;;;;;;;24.23;11.40;;;11.40;99.90;;;;;;5063385;28;20052;-39
2023/06/09 02:28:50;;;;;;;21.02;11.32;;;11.30;99.90;;;;;;5075062;28;20127;-38
2023/06/09 02:31:15;;;;;;;22.23;10.70;;;11.30;99.90;;;;;;5075135;28;20462;-39
2023/06/09 02:33:41;;;;;;;25.48;12.15;;;11.40;99.90;;;;;;5074871;28;20139;-38
2023/06/09 02:36:07;;;;;;;28.98;11.93;;;11.30;99.90;;;;;;5073905;28;20238;-38
2023/06/09 02:38:32;;;;;;;27.15;12.05;;;11.30;99.90;;;;;;5057769;28;20044;-39
2023/06/09 02:40:58;;;;;;;21.00;11.35;;;11.30;99.90;;;;;;5073891;28;20157;-39
2023/06/09 02:43:24;;;;;;;27.23;11.30;;;11.30;99.90;;;;;;5065978;28;20114;-38
2023/06/09 02:45:49;;;;;;;24.00;11.07;;;11.30;99.90;;;;;;5073990;28;20400;-40
2023/06/09 02:48:15;;;;;;;23.67;11.38;;;11.30;99.90;;;;;;5075258;28;20048;-39
2023/06/09 02:50:41;;;;;;;30.50;11.82;;;11.30;99.90;;;;;;5072871;28;20121;-39
2023/06/09 02:53:07;;;;;;;24.48;11.85;;;11.30;99.90;;;;;;5073982;28;20074;-39
2023/06/09 02:55:33;;;;;;;24.95;11.15;;;11.30;99.90;;;;;;5074871;28;20129;-39
2023/06/09 02:57:59;;;;;;;22.15;12.68;;;11.30;99.90;;;;;;5074731;28;20126;-39
2023/06/09 03:00:24;;;;;;;24.80;11.77;;;11.30;99.90;;;;;;5074423;28;20056;-38
2023/06/09 03:02:51;;;;;;;28.20;11.55;;;11.30;99.90;;;;;;5074012;28;20062;-38
2023/06/09 03:05:20;;;;;;;26.50;12.20;;;11.30;99.90;;;;;;5074870;28;20052;-38
2023/06/09 03:07:48;;;;;;;23.30;12.10;;;11.30;99.90;;;;;;5074527;28;20079;-39
2023/06/09 03:10:14;;;;;;;30.23;12.27;;;11.30;99.90;;;;;;5074653;28;20055;-39
2023/06/09 03:12:39;;;;;;;19.85;12.18;;;11.40;99.90;;;;;;5073880;28;20745;-39
2023/06/09 03:15:06;;;;;;;24.00;12.75;;;11.40;99.90;;;;;;5074310;28;20309;-38
2023/06/09 03:17:31;;;;;;;22.85;12.85;;;11.40;99.90;;;;;;5071746;28;20056;-38
2023/06/09 03:19:57;;;;;;;26.88;12.77;;;11.40;99.90;;;;;;5073757;28;20051;-38
2023/06/09 03:22:23;;;;;;;21.13;12.15;;;11.40;99.90;;;;;;5073681;28;20048;-39
2023/06/09 03:24:49;;;;;;;23.55;12.45;;;11.50;99.90;;;;;;5073874;28;20052;-39
2023/06/09 03:27:15;;;;;;;22.35;12.70;;;11.40;99.90;;;;;;5073998;28;20122;-39
2023/06/09 03:29:41;;;;;;;29.45;13.10;;;11.50;99.90;;;;;;5072584;28;20577;-39
2023/06/09 03:32:07;;;;;;;25.23;12.65;;;11.40;99.90;;;;;;5072629;28;20392;-40
2023/06/09 03:34:32;;;;;;;22.23;11.65;;;11.50;99.90;;;;;;5071916;28;20226;-39
2023/06/09 03:36:58;;;;;;;30.10;12.80;;;11.50;99.90;;;;;;5069037;28;20040;-39
2023/06/09 03:39:24;;;;;;;23.17;11.40;;;11.50;99.90;;;;;;5056711;28;20048;-39
2023/06/09 03:41:53;;;;;;;25.67;12.48;;;11.60;99.90;;;;;;5073436;28;20048;-40
2023/06/09 03:44:19;;;;;;;23.90;12.38;;;11.60;99.90;;;;;;5064836;28;20051;-40
2023/06/09 03:46:45;;;;;;;28.90;11.55;;;11.70;99.90;;;;;;5072237;28;20067;-39
2023/06/09 03:49:11;;;;;;;24.52;13.07;;;11.80;99.90;;;;;;5069637;28;20051;-39
2023/06/09 03:51:36;;;;;;;26.90;12.25;;;12.00;99.90;;;;;;5069209;28;20440;-40
2023/06/09 03:54:02;;;;;;;21.95;12.05;;;12.30;99.90;;;;;;5073236;28;20052;-40
2023/06/09 03:56:27;;;;;;;24.92;11.57;;;12.60;99.90;;;;;;5066348;28;20517;-39
2023/06/09 03:58:54;;;;;;;18.88;11.02;;;12.90;99.90;;;;;;5074062;28;20044;-40
2023/06/09 04:01:21;;;;;;;27.00;11.50;;;13.20;99.90;;;;;;5064786;28;20048;-40
2023/06/09 04:03:46;;;;;;;21.23;11.85;;;13.50;99.90;;;;;;5071667;28;20477;-40
2023/06/09 04:06:12;;;;;;;25.27;12.43;;;13.90;99.90;;;;;;5072914;28;20104;-40
2023/06/09 04:08:38;;;;;;;20.58;10.90;;;14.20;99.90;;;;;;5072958;28;20399;-40
2023/06/09 04:11:03;;;;;;;21.25;9.80;;;14.50;99.90;;;;;;5068671;28;20101;-39
2023/06/09 04:13:29;;;;;;;20.70;10.48;;;14.80;99.90;;;;;;5063202;28;20052;-39
2023/06/09 04:15:55;;;;;;;27.08;10.90;;;15.20;99.90;;;;;;5073491;28;20599;-41
2023/06/09 04:18:20;;;;;;;17.40;10.10;;;15.40;99.90;;;;;;5073916;28;20143;-39
2023/06/09 04:20:46;;;;;;;22.55;11.75;;;15.60;99.90;;;;;;5063821;28;20496;-39
2023/06/09 04:23:12;;;;;;;22.38;10.40;;;15.80;99.90;;;;;;5071230;28;20056;-41
2023/06/09 04:25:39;;;;;;;20.63;10.88;;;16.10;99.90;;;;;;5072899;28;20047;-39
2023/06/09 04:28:05;;;;;;;19.15;10.35;;;16.40;99.90;;;;;;5073290;28;20097;-40
2023/06/09 04:30:34;;;;;;;25.58;11.07;;;16.80;99.90;;;;;;5072893;28;20040;-40
2023/06/09 04:32:59;;;;;;;16.83;9.68;;;17.00;99.90;;;;;;5073207;28;20416;-40
2023/06/09 04:35:25;;;;;;;19.92;10.43;;;17.40;99.90;;;;;;5073206;28;20083;-40
2023/06/09 04:37:51;;;;;;;19.00;10.63;;;17.70;99.90;;;;;;5060136;28;20099;-41
2023/06/09 04:40:25;;;;;;;18.42;10.32;;;18.00;99.90;;;;;;5062518;28;20048;-41
2023/06/09 04:42:53;;;;;;;16.10;9.82;;;18.40;99.90;;;;;;5065718;28;20052;-40
2023/06/09 04:45:20;;;;;;;17.00;9.43;;;18.70;99.90;;;;;;5074965;28;20420;-40
2023/06/09 04:47:49;;;;;;;17.50;9.55;;;19.10;99.90;;;;;;5077881;28;20651;-41
2023/06/09 04:50:17;;;;;;;17.70;9.88;;;19.40;99.90;;;;;;5071167;28;20048;-40
2023/06/09 04:52:44;;;;;;;16.50;9.65;;;19.80;99.90;;;;;;5077529;28;20055;-41
2023/06/09 04:55:12;;;;;;;21.08;9.43;;;20.00;99.90;;;;;;5077305;28;20086;-40
2023/06/09 04:57:38;;;;;;;20.85;9.10;;;20.30;99.90;;;;;;5077956;28;20079;-40
2023/06/09 05:00:06;;;;;;;15.50;8.70;;;20.70;99.90;;;;;;5076873;28;20127;-41
2023/06/09 05:02:32;;;;;;;18.95;9.57;;;21.10;99.90;;;;;;5076895;28;20899;-40
2023/06/09 05:04:58;;;;;;;13.10;8.63;;;21.30;99.90;;;;;;5077419;28;20105;-40
2023/06/09 05:07:24;;;;;;;17.88;9.30;;;21.40;99.90;;;;;;5076024;28;20370;-41
2023/06/09 05:09:49;;;;;;;16.20;8.55;;;21.90;99.90;;;;;;5076773;28;20487;-40
2023/06/09 05:12:15;;;;;;;19.88;9.52;;;22.00;99.90;;;;;;5077037;28;20302;-41
2023/06/09 05:14:42;;;;;;;18.63;8.55;;;22.30;99.90;;;;;;5077876;28;20130;-40
2023/06/09 05:17:08;;;;;;;16.25;8.65;;;22.80;99.90;;;;;;5076980;28;20389;-40
2023/06/09 05:19:33;;;;;;;17.13;8.43;;;23.20;99.90;;;;;;5076514;28;20070;-44
2023/06/09 05:21:59;;;;;;;18.27;8.93;;;23.00;99.90;;;;;;5077069;28;20055;-41
2023/06/09 05:24:25;;;;;;;13.18;8.32;;;23.10;99.90;;;;;;5075876;28;20058;-42
2023/06/09 05:26:50;;;;;;;15.50;8.57;;;23.60;99.90;;;;;;5076860;28;20449;-42
2023/06/09 05:29:16;;;;;;;13.93;8.23;;;23.70;99.90;;;;;;5076672;28;20066;-41
2023/06/09 05:31:42;;;;;;;14.27;8.32;;;23.50;99.90;;;;;;5078088;28;20350;-41
2023/06/09 05:34:07;;;;;;;17.52;9.40;;;23.80;99.90;;;;;;5062324;28;20470;-41
2023/06/09 05:36:34;;;;;;;16.88;8.38;;;24.10;99.90;;;;;;5072684;28;20155;-41
2023/06/09 05:39:00;;;;;;;22.35;9.38;;;24.30;99.90;;;;;;5056558;28;20051;-42
2023/06/09 05:41:25;;;;;;;15.60;8.02;;;24.50;99.90;;;;;;5074342;28;20055;-40
2023/06/09 05:43:52;;;;;;;14.68;8.60;;;25.00;99.90;;;;;;5067725;28;20040;-40
2023/06/09 05:46:17;;;;;;;13.70;7.95;;;25.00;99.90;;;;;;5075368;28;20184;-43
2023/06/09 05:48:43;;;;;;;15.82;8.10;;;25.40;99.90;;;;;;5076470;28;20044;-42
2023/06/09 05:51:09;;;;;;;14.05;7.82;;;25.50;99.90;;;;;;5070102;28;20044;-41
2023/06/09 05:53:34;;;;;;;14.50;7.93;;;25.60;99.90;;;;;;5075604;28;20039;-41
2023/06/09 05:56:00;;;;;;;13.73;8.43;;;25.90;99.90;;;;;;5073125;28;20101;-42
2023/06/09 05:58:27;;;;;;;14.82;7.72;;;25.90;99.30;;;;;;5075745;28;20539;-40
2023/06/09 06:00:57;;;;;;;14.45;7.60;;;26.40;99.30;;;;;;5075256;28;20082;-41
2023/06/09 06:03:23;;;;;;;13.73;7.63;;;26.60;99.00;;;;;;5073730;28;20131;-40
2023/06/09 06:05:49;;;;;;;13.75;7.75;;;27.00;98.80;;;;;;5064055;28;20060;-41
2023/06/09 06:08:14;;;;;;;14.00;7.80;;;27.00;97.10;;;;;;5068447;28;20040;-41
2023/06/09 06:10:40;;;;;;;12.68;7.72;;;27.00;97.50;;;;;;5067353;28;20559;-39
2023/06/09 06:13:06;;;;;;;12.05;6.85;;;27.50;97.10;;;;;;5075283;28;20825;-40
2023/06/09 06:15:31;;;;;;;11.65;8.00;;;27.40;96.90;;;;;;5075338;28;20046;-39
2023/06/09 06:17:57;;;;;;;16.60;7.97;;;27.70;96.30;;;;;;5075735;28;20055;-40
2023/06/09 06:20:23;;;;;;;13.93;7.47;;;28.10;96.70;;;;;;5074740;28;20048;-40
2023/06/09 06:22:49;;;;;;;15.18;7.85;;;28.50;96.70;;;;;;5073805;28;20824;-40
2023/06/09 06:25:17;;;;;;;13.25;7.50;;;28.40;95.80;;;;;;5075604;28;20109;-41
2023/06/09 06:27:43;;;;;;;12.25;7.28;;;28.60;96.20;;;;;;5075740;28;20642;-40
2023/06/09 06:30:09;;;;;;;15.07;8.15;;;29.00;95.80;;;;;;5078676;28;20135;-40
2023/06/09 06:32:47;;;;;;;12.48;7.35;;;29.40;94.80;;;;;;5085316;28;20199;-42
2023/06/09 06:35:26;;;;;;;13.10;7.43;;;29.20;94.90;;;;;;5073390;28;20123;-42
2023/06/09 06:37:52;;;;;;;13.60;8.02;;;29.20;94.80;;;;;;5070826;28;20573;-40
2023/06/09 06:40:18;;;;;;;12.45;7.35;;;29.20;94.60;;;;;;5073627;28;20056;-41
2023/06/09 06:42:44;;;;;;;12.27;7.05;;;29.50;93.40;;;;;;5070335;28;20140;-40
2023/06/09 06:45:10;;;;;;;16.10;7.43;;;29.50;94.80;;;;;;5071668;28;20122;-39
2023/06/09 06:47:35;;;;;;;15.48;7.80;;;29.70;94.60;;;;;;5073259;28;20048;-40
2023/06/09 06:50:02;;;;;;;25.38;9.25;;;29.30;94.00;;;;;;5068002;28;20055;-41
2023/06/09 06:52:28;;;;;;;23.10;7.93;;;29.50;93.90;;;;;;5074666;28;20304;-39
2023/06/09 06:54:53;;;;;;;14.07;8.18;;;29.80;94.00;;;;;;5075358;28;20233;-41
2023/06/09 06:57:19;;;;;;;13.73;8.00;;;29.90;93.10;;;;;;5075742;28;20098;-40
2023/06/09 06:59:45;;;;;;;14.10;7.82;;;29.10;93.00;;;;;;5074810;28;20052;-40
2023/06/09 07:02:10;;;;;;;13.02;7.70;;;29.20;93.70;;;;;;5074928;28;20052;-40
2023/06/09 07:04:36;;;;;;;14.15;8.30;;;29.20;94.20;;;;;;5072300;28;20945;-40
2023/06/09 07:07:02;;;;;;;17.50;8.20;;;29.70;93.70;;;;;;5073848;28;20047;-42
2023/06/09 07:09:28;;;;;;;14.48;8.70;;;29.50;93.80;;;;;;5073585;28;20080;-40
2023/06/09 07:11:54;;;;;;;14.80;8.48;;;29.50;93.30;;;;;;5074320;28;20614;-42
2023/06/09 07:14:19;;;;;;;11.63;7.88;;;29.40;92.90;;;;;;5073689;28;20051;-41
2023/06/09 07:16:45;;;;;;;13.15;8.35;;;29.40;93.20;;;;;;5074556;28;20056;-41
2023/06/09 07:19:11;;;;;;;15.10;7.82;;;29.30;93.20;;;;;;5074504;28;20453;-41
2023/06/09 07:21:37;;;;;;;11.57;7.47;;;29.10;93.30;;;;;;5071890;28;20082;-40
2023/06/09 07:24:06;;;;;;;15.25;8.15;;;28.70;93.60;;;;;;5067316;28;20154;-42
2023/06/09 07:26:32;;;;;;;16.85;8.35;;;27.90;94.60;;;;;;5068011;28;20050;-43
2023/06/09 07:28:58;;;;;;;16.33;8.63;;;27.40;95.40;;;;;;5073431;28;20479;-42
2023/06/09 07:31:24;;;;;;;14.38;8.55;;;27.00;96.00;;;;;;5073935;28;20047;-40
2023/06/09 07:33:50;;;;;;;12.75;7.03;;;26.70;95.60;;;;;;5073756;28;20151;-40
2023/06/09 07:36:16;;;;;;;13.00;7.90;;;26.30;96.30;;;;;;5072633;28;20815;-45
2023/06/09 07:38:43;;;;;;;11.70;7.43;;;26.10;96.70;;;;;;5059599;28;20499;-40
2023/06/09 07:41:09;;;;;;;14.70;8.30;;;26.00;96.40;;;;;;5077987;28;20607;-40
2023/06/09 07:43:35;;;;;;;12.50;7.57;;;25.80;96.20;;;;;;5054737;28;20648;-40
2023/06/09 07:46:01;;;;;;;11.02;7.63;;;25.60;96.90;;;;;;5074474;28;20089;-40
2023/06/09 07:48:27;;;;;;;14.75;7.40;;;25.60;97.20;;;;;;5074174;28;20048;-40
2023/06/09 07:50:53;;;;;;;13.48;7.32;;;25.70;97.10;;;;;;5067726;28;20043;-39
2023/06/09 07:53:20;;;;;;;15.65;8.45;;;25.40;96.10;;;;;;5073213;28;20062;-40
2023/06/09 07:55:45;;;;;;;20.17;8.65;;;25.20;97.10;;;;;;5094589;27;20401;-40
2023/06/09 07:58:11;;;;;;;14.27;7.13;;;25.10;97.70;;;;;;5051631;28;20051;-40
2023/06/09 08:00:37;;;;;;;12.73;7.65;;;25.00;97.00;;;;;;5072183;28;20085;-41
2023/06/09 08:03:03;;;;;;;21.00;8.77;;;24.60;96.80;;;;;;5072414;28;20520;-40
2023/06/09 08:05:32;;;;;;;13.88;7.72;;;24.30;97.50;;;;;;5074521;28;20518;-42
2023/06/09 08:08:00;;;;;;;11.27;7.25;;;24.00;97.50;;;;;;5074429;28;20616;-39
2023/06/09 08:10:26;;;;;;;16.75;8.40;;;24.00;98.70;;;;;;5073331;28;20048;-40
2023/06/09 08:12:52;;;;;;;14.18;8.15;;;24.00;98.10;;;;;;5073007;28;20047;-41
2023/06/09 08:15:17;;;;;;;16.48;8.20;;;23.90;98.50;;;;;;5074180;28;20052;-41
2023/06/09 08:17:43;;;;;;;13.10;8.68;;;23.60;98.60;;;;;;5074208;28;20546;-42
2023/06/09 08:20:09;;;;;;;12.13;8.15;;;23.50;98.50;;;;;;5074224;28;20148;-40
2023/06/09 08:22:35;;;;;;;12.77;7.65;;;23.30;98.70;;;;;;5073388;28;20933;-39
2023/06/09 08:25:02;;;;;;;13.27;7.70;;;23.30;99.50;;;;;;5073905;28;20055;-43
2023/06/09 08:27:28;;;;;;;14.57;8.35;;;23.50;99.30;;;;;;5072710;28;20036;-41
2023/06/09 08:29:53;;;;;;;12.95;8.50;;;23.50;99.40;;;;;;5073436;28;20039;-40
2023/06/09 08:32:19;;;;;;;15.15;8.25;;;23.60;99.20;;;;;;5054775;28;20047;-41
2023/06/09 08:34:44;;;;;;;13.75;8.10;;;23.60;99.50;;;;;;5073675;28;20048;-40
2023/06/09 08:37:10;;;;;;;12.88;8.80;;;23.80;99.90;;;;;;5066866;28;20044;-42
2023/06/09 08:39:36;;;;;;;15.23;8.57;;;23.90;99.90;;;;;;5057065;28;20040;-41
2023/06/09 08:42:09;;;;;;;13.35;8.70;;;24.00;99.20;;;;;;5072803;28;20495;-39
2023/06/09 08:44:40;;;;;;;12.38;7.70;;;23.90;99.20;;;;;;5065262;28;20211;-39
2023/06/09 08:47:08;;;;;;;15.05;8.63;;;24.10;99.90;;;;;;5073340;28;20051;-40
2023/06/09 08:49:35;;;;;;;15.70;8.15;;;24.20;99.90;;;;;;5066645;28;20052;-42
2023/06/09 08:52:03;;;;;;;13.25;8.13;;;24.40;99.90;;;;;;5071688;28;20482;-41
2023/06/09 08:54:30;;;;;;;13.27;8.32;;;24.60;99.60;;;;;;5072718;28;20052;-40
2023/06/09 08:56:56;;;;;;;15.52;8.63;;;24.70;98.80;;;;;;5073200;28;20173;-40
2023/06/09 08:59:23;;;;;;;13.75;8.25;;;24.70;98.80;;;;;;5072268;28;20048;-43
2023/06/09 09:01:49;;;;;;;12.57;8.13;;;24.70;99.40;;;;;;5073004;28;20040;-42
2023/06/09 09:04:16;;;;;;;19.17;9.25;;;24.80;99.40;;;;;;5071730;28;20113;-41
2023/06/09 09:06:42;;;;;;;12.70;7.85;;;24.70;99.40;;;;;;5073758;28;20515;-41
2023/06/09 09:09:08;;;;;;;17.48;8.68;;;24.80;99.50;;;;;;5071415;28;20044;-40
2023/06/09 09:11:35;;;;;;;15.05;8.25;;;24.80;99.40;;;;;;5073296;28;20058;-44
2023/06/09 09:14:10;;;;;;;15.27;8.57;;;24.90;99.30;;;;;;5072452;28;20051;-41
2023/06/09 09:16:36;;;;;;;11.82;9.20;;;25.00;99.70;;;;;;5073042;28;20078;-42
2023/06/09 09:19:03;;;;;;;14.43;8.10;;;25.20;99.30;;;;;;5072558;28;20162;-41
2023/06/09 09:21:29;;;;;;;17.90;8.80;;;25.10;98.90;;;;;;5072681;28;20452;-40
2023/06/09 09:24:03;;;;;;;13.02;8.63;;;25.00;99.50;;;;;;5071931;28;20127;-42
2023/06/09 09:26:30;;;;;;;12.55;8.27;;;25.10;99.40;;;;;;5071158;28;20884;-40
2023/06/09 09:29:01;;;;;;;12.10;8.45;;;25.20;99.50;;;;;;5072094;28;20113;-42
2023/06/09 09:32:01;;;;;;;12.55;8.68;;;25.30;99.10;;;;;;5076238;28;20059;-43
2023/06/09 09:34:30;;;;;;;16.35;9.00;;;25.20;99.10;;;;;;5032632;28;20064;-44
2023/06/09 09:36:56;;;;;;;14.82;8.48;;;25.20;99.30;;;;;;5021596;28;20054;-40
2023/06/09 09:39:25;;;;;;;15.10;8.52;;;25.40;99.30;;;;;;5012045;28;20057;-41
2023/06/09 09:42:06;;;;;;;9.43;7.75;;;25.40;99.00;;;;;;5015742;28;20060;-41
2023/06/09 09:44:36;;;;;;;16.10;8.48;;;25.30;98.30;;;;;;5017255;28;20107;-40
2023/06/09 09:47:04;;;;;;;13.77;9.77;;;25.30;99.00;;;;;;5022244;28;20046;-40
2023/06/09 09:49:30;;;;;;;14.43;8.20;;;25.40;99.40;;;;;;5007068;28;20569;-40
2023/06/09 09:51:58;;;;;;;12.27;8.55;;;25.60;98.90;;;;;;5019136;28;20070;-42
2023/06/09 09:54:26;;;;;;;11.68;7.70;;;25.70;99.20;;;;;;5006232;28;20479;-43
2023/06/09 09:56:59;;;;;;;16.60;8.60;;;25.70;99.10;;;;;;5018955;28;20457;-41
2023/06/09 09:59:28;;;;;;;11.27;8.68;;;25.80;99.00;;;;;;5031817;28;20472;-41
2023/06/09 10:01:55;;;;;;;13.23;8.30;;;25.80;98.80;;;;;;5021358;28;20508;-42
2023/06/09 10:04:25;;;;;;;12.55;7.80;;;25.80;98.40;;;;;;5012060;28;20065;-41
2023/06/09 10:06:55;;;;;;;10.98;7.47;;;25.80;98.30;;;;;;5010307;28;20111;-43
2023/06/09 10:09:24;;;;;;;10.90;7.65;;;25.80;97.90;;;;;;5012858;28;20865;-41
2023/06/09 10:11:55;;;;;;;10.10;7.80;;;25.80;98.00;;;;;;5070468;28;20062;-40
2023/06/09 10:14:21;;;;;;;12.48;8.13;;;25.80;98.20;;;;;;5075320;28;20086;-41
2023/06/09 10:16:49;;;;;;;12.07;7.43;;;25.80;98.20;;;;;;5075230;28;20028;-41
2023/06/09 10:19:17;;;;;;;12.25;8.02;;;25.80;97.80;;;;;;5075531;28;20044;-40
2023/06/09 10:21:43;;;;;;;13.07;7.32;;;25.90;98.50;;;;;;5076200;28;20156;-40
2023/06/09 10:24:12;;;;;;;11.73;7.63;;;26.00;98.50;;;;;;5076571;28;20523;-41
2023/06/09 10:26:38;;;;;;;11.98;7.38;;;26.10;97.70;;;;;;5075935;28;20560;-40
2023/06/09 10:29:11;;;;;;;12.73;7.45;;;26.00;97.40;;;;;;5075699;28;20044;-42
2023/06/09 10:31:41;;;;;;;;;;;26.10;98.10;;;;;;5076397;28;20571;-40
2023/06/09 10:34:08;;;;;;;10.98;6.60;;;26.20;98.20;;;;;;5074955;28;19924;-41
2023/06/09 10:36:40;;;;;;;10.88;7.55;;;26.40;98.10;;;;;;5070215;28;20352;-40
2023/06/09 10:39:19;;;;;;;9.43;7.35;;;26.50;97.60;;;;;;5096065;27;20090;-41
2023/06/09 10:41:58;;;;;;;10.63;7.03;;;26.60;97.30;;;;;;5070809;28;20321;-40
2023/06/09 10:44:53;;;;;;;14.05;7.82;;;26.60;97.10;;;;;;5066314;28;20044;-41
2023/06/09 10:47:45;;;;;;;15.75;7.72;;;26.50;97.50;;;;;;5059091;28;20055;-42
2023/06/09 10:50:22;;;;;;;11.10;7.40;;;26.60;97.80;;;;;;5103262;27;20035;-44
2023/06/09 10:52:56;;;;;;;11.73;7.85;;;26.70;98.10;;;;;;5073547;28;20468;-41
2023/06/09 10:55:24;;;;;;;11.18;7.38;;;26.80;97.70;;;;;;5075751;28;20459;-41
2023/06/09 10:57:53;;;;;;;12.07;7.15;;;26.80;97.40;;;;;;5075070;28;20039;-41
2023/06/09 11:00:20;;;;;;;10.43;7.15;;;26.80;97.00;;;;;;5071587;28;20060;-46
2023/06/09 11:03:08;;;;;;;12.35;7.80;;;26.80;96.90;;;;;;5072384;28;20048;-44
2023/06/09 11:05:42;;;;;;;12.95;7.60;;;26.70;97.00;;;;;;5074333;28;20044;-42
2023/06/09 11:08:08;;;;;;;11.48;7.72;;;26.60;97.00;;;;;;5074538;28;20072;-41
2023/06/09 11:10:38;;;;;;;9.63;7.03;;;26.60;97.60;;;;;;5074321;28;20155;-41
2023/06/09 11:13:38;;;;;;;11.85;7.00;;;26.70;97.90;;;;;;5074396;28;20540;-43
2023/06/09 11:16:04;;;;;;;10.73;6.70;;;26.80;97.50;;;;;;5075108;28;20130;-42
2023/06/09 11:18:30;;;;;;;11.40;7.18;;;26.80;97.60;;;;;;5073263;28;20119;-42
2023/06/09 11:21:10;;;;;;;14.48;7.20;;;26.80;97.30;;;;;;5075224;28;20509;-45
2023/06/09 11:24:03;;;;;;;8.77;6.43;;;26.90;98.00;;;;;;5074380;28;20040;-41
2023/06/09 11:26:29;;;;;;;;;;;27.00;97.60;;;;;;5063993;28;20079;-43
2023/06/09 11:28:55;;;;;;;11.15;6.55;;;27.10;97.40;;;;;;5075110;28;20283;-41
2023/06/09 11:31:21;;;;;;;9.82;7.38;;;27.20;97.40;;;;;;5075382;28;20036;-41
2023/06/09 11:33:53;;;;;;;12.30;7.70;;;27.30;97.20;;;;;;5074940;28;20093;-41
2023/06/09 11:36:37;;;;;;;10.95;7.13;;;27.30;96.40;;;;;;5073160;28;20043;-42
2023/06/09 11:39:06;;;;;;;11.70;6.70;;;27.30;96.10;;;;;;5055151;28;20040;-41
2023/06/09 11:41:32;;;;;;;10.05;6.72;;;27.30;96.70;;;;;;5073294;28;20072;-43
2023/06/09 11:43:58;;;;;;;11.93;7.15;;;27.30;97.20;;;;;;5069688;28;20044;-41
2023/06/09 11:46:24;;;;;;;11.02;6.95;;;27.40;96.80;;;;;;5073905;28;20044;-41
2023/06/09 11:48:58;;;;;;;9.57;6.75;;;27.40;96.70;;;;;;5071673;28;20109;-41
2023/06/09 11:51:24;;;;;;;9.50;7.00;;;27.40;96.50;;;;;;5086745;27;20524;-45
2023/06/09 11:53:50;;;;;;;13.20;7.43;;;27.40;96.40;;;;;;5072953;28;20168;-42
2023/06/09 11:56:15;;;;;;;10.77;6.78;;;27.50;96.50;;;;;;5073663;28;20099;-41
2023/06/09 11:58:42;;;;;;;9.52;6.10;;;27.60;97.00;;;;;;5073806;28;20040;-41
2023/06/09 12:01:08;;;;;;;8.98;6.70;;;27.70;97.10;;;;;;5072183;28;20144;-41
2023/06/09 12:03:36;;;;;;;6.88;6.15;;;27.70;96.70;;;;;;5073018;28;20150;-46
2023/06/09 12:06:02;;;;;;;9.55;6.32;;;27.80;96.60;;;;;;5072080;28;20044;-42
2023/06/09 12:08:28;;;;;;;9.27;6.70;;;27.70;95.90;;;;;;5073386;28;20045;-42
2023/06/09 12:10:53;;;;;;;11.13;7.75;;;27.60;96.10;;;;;;5073298;28;20073;-41
2023/06/09 12:13:19;;;;;;;11.45;6.80;;;27.70;96.50;;;;;;5055739;28;20060;-40
2023/06/09 12:15:52;;;;;;;11.35;6.55;;;27.70;96.40;;;;;;5074663;28;20101;-43
2023/06/09 12:18:18;;;;;;;14.50;6.70;;;27.70;96.50;;;;;;5074186;28;20044;-43
2023/06/09 12:20:45;;;;;;;11.05;7.13;;;27.70;96.00;;;;;;5073787;28;20036;-41
2023/06/09 12:23:13;;;;;;;10.60;6.63;;;27.70;96.00;;;;;;5073725;28;20043;-41
2023/06/09 12:25:47;;;;;;;10.25;7.13;;;27.80;95.80;;;;;;5072603;28;20048;-41
2023/06/09 12:28:26;;;;;;;7.88;7.03;;;27.70;95.70;;;;;;5072034;28;20055;-44
2023/06/09 12:30:53;;;;;;;13.93;7.20;;;27.70;95.30;;;;;;5072937;28;20085;-40
2023/06/09 12:33:29;;;;;;;12.82;6.80;;;27.60;95.90;;;;;;5072284;28;20064;-41
2023/06/09 12:36:03;;;;;;;8.57;6.32;;;27.70;96.20;;;;;;5073677;28;20518;-41
2023/06/09 12:38:28;;;;;;;13.43;6.78;;;27.80;96.50;;;;;;5056953;28;20415;-41
2023/06/09 12:41:05;;;;;;;10.85;7.80;;;27.90;96.00;;;;;;5067750;28;20104;-41